sensor_id;sensor_type;location;lat;lon;timestamp;P1;durP1;ratioP1;P2;durP2;ratioP2
37891;SDS011;45797;47.466;9.486;2022-07-29T00:04:44;1.65;;;0.65;;
37891;SDS011;45797;47.466;9.486;2022-07-29T00:09:44;1.58;;;0.70;;
37891;SDS011;45797;47.466;9.486;2022-07-29T00:14:54;2.03;;;0.93;;
37891;SDS011;45797;47.466;9.486;2022-07-29T00:19:55;1.58;;;0.68;;
37891;SDS011;45797;47.466;9.486;2022-07-29T00:24:55;1.42;;;0.60;;
37891;SDS011;45797;47.466;9.486;2022-07-29T00:29:56;1.88;;;0.70;;
37891;SDS011;45797;47.466;9.486;2022-07-29T00:34:55;2.30;;;0.88;;
37891;SDS011;45797;47.466;9.486;2022-07-29T00:40:14;1.67;;;0.65;;
37891;SDS011;45797;47.466;9.486;2022-07-29T00:45:15;1.90;;;0.88;;
37891;SDS011;45797;47.466;9.486;2022-07-29T00:50:18;1.30;;;0.70;;
37891;SDS011;45797;47.466;9.486;2022-07-29T00:55:18;1.83;;;0.80;;
37891;SDS011;45797;47.466;9.486;2022-07-29T01:00:21;1.73;;;0.90;;
37891;SDS011;45797;47.466;9.486;2022-07-29T01:05:26;1.95;;;1.05;;
37891;SDS011;45797;47.466;9.486;2022-07-29T01:10:28;5.95;;;1.13;;
37891;SDS011;45797;47.466;9.486;2022-07-29T01:15:30;3.78;;;1.10;;
37891;SDS011;45797;47.466;9.486;2022-07-29T01:30:53;5.05;;;0.90;;
37891;SDS011;45797;47.466;9.486;2022-07-29T01:35:54;4.13;;;1.10;;
37891;SDS011;45797;47.466;9.486;2022-07-29T01:40:58;3.10;;;1.10;;
37891;SDS011;45797;47.466;9.486;2022-07-29T01:46:09;2.78;;;1.30;;
37891;SDS011;45797;47.466;9.486;2022-07-29T01:56:19;2.40;;;1.25;;
37891;SDS011;45797;47.466;9.486;2022-07-29T02:01:29;2.15;;;1.08;;
37891;SDS011;45797;47.466;9.486;2022-07-29T02:11:40;3.55;;;1.40;;
37891;SDS011;45797;47.466;9.486;2022-07-29T02:16:47;3.65;;;1.33;;
37891;SDS011;45797;47.466;9.486;2022-07-29T02:21:49;2.72;;;1.13;;
37891;SDS011;45797;47.466;9.486;2022-07-29T02:26:51;3.40;;;1.42;;
37891;SDS011;45797;47.466;9.486;2022-07-29T02:31:52;3.05;;;1.60;;
37891;SDS011;45797;47.466;9.486;2022-07-29T02:36:54;5.05;;;1.50;;
37891;SDS011;45797;47.466;9.486;2022-07-29T02:41:58;4.75;;;1.48;;
37891;SDS011;45797;47.466;9.486;2022-07-29T02:47:19;2.80;;;1.40;;
37891;SDS011;45797;47.466;9.486;2022-07-29T02:52:31;3.65;;;1.45;;
37891;SDS011;45797;47.466;9.486;2022-07-29T02:57:41;2.45;;;1.33;;
37891;SDS011;45797;47.466;9.486;2022-07-29T03:02:45;3.42;;;1.50;;
37891;SDS011;45797;47.466;9.486;2022-07-29T03:07:52;2.30;;;1.27;;
37891;SDS011;45797;47.466;9.486;2022-07-29T03:13:00;4.47;;;1.92;;
37891;SDS011;45797;47.466;9.486;2022-07-29T03:18:00;4.60;;;1.55;;
37891;SDS011;45797;47.466;9.486;2022-07-29T03:23:01;2.30;;;1.27;;
37891;SDS011;45797;47.466;9.486;2022-07-29T03:28:07;2.25;;;1.20;;
37891;SDS011;45797;47.466;9.486;2022-07-29T03:38:18;2.90;;;1.30;;
37891;SDS011;45797;47.466;9.486;2022-07-29T03:43:30;3.10;;;1.30;;
37891;SDS011;45797;47.466;9.486;2022-07-29T03:48:35;5.20;;;1.20;;
37891;SDS011;45797;47.466;9.486;2022-07-29T03:53:40;5.15;;;1.33;;
37891;SDS011;45797;47.466;9.486;2022-07-29T04:03:44;5.13;;;1.20;;
37891;SDS011;45797;47.466;9.486;2022-07-29T04:08:49;3.80;;;1.50;;
37891;SDS011;45797;47.466;9.486;2022-07-29T04:13:49;2.42;;;1.30;;
37891;SDS011;45797;47.466;9.486;2022-07-29T04:18:50;2.22;;;1.13;;
37891;SDS011;45797;47.466;9.486;2022-07-29T04:23:50;2.80;;;1.50;;
37891;SDS011;45797;47.466;9.486;2022-07-29T04:28:52;2.75;;;1.50;;
37891;SDS011;45797;47.466;9.486;2022-07-29T04:33:52;2.42;;;1.05;;
37891;SDS011;45797;47.466;9.486;2022-07-29T04:38:52;2.80;;;1.33;;
37891;SDS011;45797;47.466;9.486;2022-07-29T04:44:00;3.08;;;1.58;;
37891;SDS011;45797;47.466;9.486;2022-07-29T04:49:04;2.47;;;1.23;;
37891;SDS011;45797;47.466;9.486;2022-07-29T04:54:06;2.70;;;1.33;;
37891;SDS011;45797;47.466;9.486;2022-07-29T04:59:08;2.30;;;1.30;;
37891;SDS011;45797;47.466;9.486;2022-07-29T05:04:08;2.40;;;1.25;;
37891;SDS011;45797;47.466;9.486;2022-07-29T05:09:07;2.30;;;1.30;;
37891;SDS011;45797;47.466;9.486;2022-07-29T05:14:08;2.42;;;1.20;;
37891;SDS011;45797;47.466;9.486;2022-07-29T05:19:08;2.60;;;1.40;;
37891;SDS011;45797;47.466;9.486;2022-07-29T05:24:10;2.83;;;1.42;;
37891;SDS011;45797;47.466;9.486;2022-07-29T05:29:11;2.35;;;1.23;;
37891;SDS011;45797;47.466;9.486;2022-07-29T05:34:12;4.65;;;1.55;;
37891;SDS011;45797;47.466;9.486;2022-07-29T05:39:12;3.15;;;1.60;;
37891;SDS011;45797;47.466;9.486;2022-07-29T05:44:13;3.28;;;1.83;;
37891;SDS011;45797;47.466;9.486;2022-07-29T05:49:14;3.88;;;1.55;;
37891;SDS011;45797;47.466;9.486;2022-07-29T05:54:16;3.13;;;1.70;;
37891;SDS011;45797;47.466;9.486;2022-07-29T05:59:17;3.63;;;1.70;;
37891;SDS011;45797;47.466;9.486;2022-07-29T06:04:17;4.18;;;1.60;;
37891;SDS011;45797;47.466;9.486;2022-07-29T06:09:19;3.92;;;1.42;;
37891;SDS011;45797;47.466;9.486;2022-07-29T06:14:24;2.72;;;1.40;;
37891;SDS011;45797;47.466;9.486;2022-07-29T06:19:30;2.80;;;1.60;;
37891;SDS011;45797;47.466;9.486;2022-07-29T06:24:30;2.33;;;1.23;;
37891;SDS011;45797;47.466;9.486;2022-07-29T06:29:36;2.60;;;1.30;;
37891;SDS011;45797;47.466;9.486;2022-07-29T06:34:37;4.75;;;1.70;;
37891;SDS011;45797;47.466;9.486;2022-07-29T06:39:38;2.97;;;1.38;;
37891;SDS011;45797;47.466;9.486;2022-07-29T06:44:38;7.95;;;1.73;;
37891;SDS011;45797;47.466;9.486;2022-07-29T06:49:38;3.15;;;1.35;;
37891;SDS011;45797;47.466;9.486;2022-07-29T06:54:37;2.97;;;1.45;;
37891;SDS011;45797;47.466;9.486;2022-07-29T06:59:40;6.10;;;1.50;;
37891;SDS011;45797;47.466;9.486;2022-07-29T07:04:39;2.13;;;1.10;;
37891;SDS011;45797;47.466;9.486;2022-07-29T07:09:39;3.00;;;1.35;;
37891;SDS011;45797;47.466;9.486;2022-07-29T07:14:39;2.92;;;1.55;;
37891;SDS011;45797;47.466;9.486;2022-07-29T07:19:40;3.10;;;1.63;;
37891;SDS011;45797;47.466;9.486;2022-07-29T07:24:40;2.70;;;1.50;;
37891;SDS011;45797;47.466;9.486;2022-07-29T07:29:40;3.78;;;2.00;;
37891;SDS011;45797;47.466;9.486;2022-07-29T07:34:54;3.67;;;2.15;;
37891;SDS011;45797;47.466;9.486;2022-07-29T07:39:55;5.07;;;2.13;;
37891;SDS011;45797;47.466;9.486;2022-07-29T07:44:55;3.78;;;1.90;;
37891;SDS011;45797;47.466;9.486;2022-07-29T07:49:55;4.55;;;2.20;;
37891;SDS011;45797;47.466;9.486;2022-07-29T07:54:55;4.40;;;2.28;;
37891;SDS011;45797;47.466;9.486;2022-07-29T07:59:55;3.90;;;2.40;;
37891;SDS011;45797;47.466;9.486;2022-07-29T08:04:55;5.93;;;2.38;;
37891;SDS011;45797;47.466;9.486;2022-07-29T08:09:56;4.07;;;2.20;;
37891;SDS011;45797;47.466;9.486;2022-07-29T08:14:57;4.45;;;2.05;;
37891;SDS011;45797;47.466;9.486;2022-07-29T08:19:58;3.63;;;2.15;;
37891;SDS011;45797;47.466;9.486;2022-07-29T08:30:03;4.32;;;2.50;;
37891;SDS011;45797;47.466;9.486;2022-07-29T08:35:03;5.10;;;2.67;;
37891;SDS011;45797;47.466;9.486;2022-07-29T08:40:04;4.00;;;2.30;;
37891;SDS011;45797;47.466;9.486;2022-07-29T08:45:05;4.80;;;2.58;;
37891;SDS011;45797;47.466;9.486;2022-07-29T08:50:09;6.30;;;2.58;;
37891;SDS011;45797;47.466;9.486;2022-07-29T08:55:10;4.50;;;2.42;;
37891;SDS011;45797;47.466;9.486;2022-07-29T09:00:11;4.75;;;2.22;;
37891;SDS011;45797;47.466;9.486;2022-07-29T09:05:11;5.63;;;2.72;;
37891;SDS011;45797;47.466;9.486;2022-07-29T09:10:11;5.65;;;2.65;;
37891;SDS011;45797;47.466;9.486;2022-07-29T09:15:11;5.00;;;2.67;;
37891;SDS011;45797;47.466;9.486;2022-07-29T09:20:12;4.32;;;2.42;;
37891;SDS011;45797;47.466;9.486;2022-07-29T09:36:05;4.97;;;2.15;;
37891;SDS011;45797;47.466;9.486;2022-07-29T09:41:08;4.40;;;2.72;;
37891;SDS011;45797;47.466;9.486;2022-07-29T09:46:12;4.65;;;2.70;;
37891;SDS011;45797;47.466;9.486;2022-07-29T09:51:19;5.03;;;2.85;;
37891;SDS011;45797;47.466;9.486;2022-07-29T09:56:43;4.95;;;2.85;;
37891;SDS011;45797;47.466;9.486;2022-07-29T10:01:43;5.07;;;2.67;;
37891;SDS011;45797;47.466;9.486;2022-07-29T10:07:01;5.53;;;3.20;;
37891;SDS011;45797;47.466;9.486;2022-07-29T10:12:12;5.95;;;3.00;;
37891;SDS011;45797;47.466;9.486;2022-07-29T10:17:17;5.70;;;3.13;;
37891;SDS011;45797;47.466;9.486;2022-07-29T10:22:22;5.38;;;3.08;;
37891;SDS011;45797;47.466;9.486;2022-07-29T10:27:23;4.88;;;2.85;;
37891;SDS011;45797;47.466;9.486;2022-07-29T10:32:30;5.22;;;3.13;;
37891;SDS011;45797;47.466;9.486;2022-07-29T10:43:29;5.22;;;2.72;;
37891;SDS011;45797;47.466;9.486;2022-07-29T10:53:57;5.35;;;2.92;;
37891;SDS011;45797;47.466;9.486;2022-07-29T11:15:21;4.47;;;2.13;;
37891;SDS011;45797;47.466;9.486;2022-07-29T11:26:20;4.55;;;2.53;;
37891;SDS011;45797;47.466;9.486;2022-07-29T11:47:26;4.07;;;2.28;;
37891;SDS011;45797;47.466;9.486;2022-07-29T11:52:36;5.70;;;2.08;;
37891;SDS011;45797;47.466;9.486;2022-07-29T11:58:01;3.75;;;2.42;;
37891;SDS011;45797;47.466;9.486;2022-07-29T12:03:02;5.03;;;2.38;;
37891;SDS011;45797;47.466;9.486;2022-07-29T12:08:07;4.18;;;2.20;;
37891;SDS011;45797;47.466;9.486;2022-07-29T12:13:12;5.15;;;2.70;;
37891;SDS011;45797;47.466;9.486;2022-07-29T12:18:16;3.70;;;2.30;;
37891;SDS011;45797;47.466;9.486;2022-07-29T12:23:19;4.20;;;2.40;;
37891;SDS011;45797;47.466;9.486;2022-07-29T12:28:20;3.67;;;2.40;;
37891;SDS011;45797;47.466;9.486;2022-07-29T12:33:23;4.43;;;2.58;;
37891;SDS011;45797;47.466;9.486;2022-07-29T12:38:29;4.30;;;2.40;;
37891;SDS011;45797;47.466;9.486;2022-07-29T12:43:29;4.60;;;2.70;;
37891;SDS011;45797;47.466;9.486;2022-07-29T12:48:37;3.50;;;1.80;;
37891;SDS011;45797;47.466;9.486;2022-07-29T12:53:40;3.50;;;2.00;;
37891;SDS011;45797;47.466;9.486;2022-07-29T12:58:41;6.53;;;2.20;;
37891;SDS011;45797;47.466;9.486;2022-07-29T13:03:55;4.43;;;2.25;;
37891;SDS011;45797;47.466;9.486;2022-07-29T13:25:28;4.78;;;2.90;;
37891;SDS011;45797;47.466;9.486;2022-07-29T13:30:29;5.10;;;3.00;;
37891;SDS011;45797;47.466;9.486;2022-07-29T13:35:35;5.18;;;2.80;;
37891;SDS011;45797;47.466;9.486;2022-07-29T13:45:47;8.18;;;3.65;;
37891;SDS011;45797;47.466;9.486;2022-07-29T13:50:47;6.32;;;3.60;;
37891;SDS011;45797;47.466;9.486;2022-07-29T13:55:48;4.30;;;3.00;;
37891;SDS011;45797;47.466;9.486;2022-07-29T14:00:48;5.47;;;3.03;;
37891;SDS011;45797;47.466;9.486;2022-07-29T14:05:48;5.00;;;2.60;;
37891;SDS011;45797;47.466;9.486;2022-07-29T14:10:48;3.95;;;2.30;;
37891;SDS011;45797;47.466;9.486;2022-07-29T14:15:54;3.80;;;2.47;;
37891;SDS011;45797;47.466;9.486;2022-07-29T14:26:01;5.03;;;2.25;;
37891;SDS011;45797;47.466;9.486;2022-07-29T14:31:02;3.60;;;2.28;;
37891;SDS011;45797;47.466;9.486;2022-07-29T14:36:02;4.10;;;2.35;;
37891;SDS011;45797;47.466;9.486;2022-07-29T14:41:03;3.95;;;2.15;;
37891;SDS011;45797;47.466;9.486;2022-07-29T14:46:09;3.25;;;2.08;;
37891;SDS011;45797;47.466;9.486;2022-07-29T14:51:09;5.93;;;2.40;;
37891;SDS011;45797;47.466;9.486;2022-07-29T14:56:10;3.33;;;2.10;;
37891;SDS011;45797;47.466;9.486;2022-07-29T15:01:13;4.10;;;2.40;;
37891;SDS011;45797;47.466;9.486;2022-07-29T15:06:13;3.53;;;1.88;;
37891;SDS011;45797;47.466;9.486;2022-07-29T15:11:13;3.90;;;2.28;;
37891;SDS011;45797;47.466;9.486;2022-07-29T15:16:22;5.07;;;2.47;;
37891;SDS011;45797;47.466;9.486;2022-07-29T15:21:24;3.65;;;2.35;;
37891;SDS011;45797;47.466;9.486;2022-07-29T15:31:28;4.05;;;2.33;;
37891;SDS011;45797;47.466;9.486;2022-07-29T15:36:29;4.15;;;2.47;;
37891;SDS011;45797;47.466;9.486;2022-07-29T15:41:30;3.78;;;2.30;;
37891;SDS011;45797;47.466;9.486;2022-07-29T15:46:30;4.38;;;2.17;;
37891;SDS011;45797;47.466;9.486;2022-07-29T15:51:48;5.97;;;2.60;;
37891;SDS011;45797;47.466;9.486;2022-07-29T15:56:48;4.72;;;2.40;;
37891;SDS011;45797;47.466;9.486;2022-07-29T16:01:49;4.60;;;2.50;;
37891;SDS011;45797;47.466;9.486;2022-07-29T16:06:49;4.82;;;2.40;;
37891;SDS011;45797;47.466;9.486;2022-07-29T16:11:50;4.38;;;2.40;;
37891;SDS011;45797;47.466;9.486;2022-07-29T16:16:52;4.97;;;2.40;;
37891;SDS011;45797;47.466;9.486;2022-07-29T16:21:51;4.18;;;2.45;;
37891;SDS011;45797;47.466;9.486;2022-07-29T16:26:52;4.72;;;2.58;;
37891;SDS011;45797;47.466;9.486;2022-07-29T16:31:54;5.45;;;2.20;;
37891;SDS011;45797;47.466;9.486;2022-07-29T16:37:00;6.50;;;2.53;;
37891;SDS011;45797;47.466;9.486;2022-07-29T16:41:59;4.13;;;2.20;;
37891;SDS011;45797;47.466;9.486;2022-07-29T16:47:00;5.32;;;2.28;;
37891;SDS011;45797;47.466;9.486;2022-07-29T16:52:00;3.33;;;2.10;;
37891;SDS011;45797;47.466;9.486;2022-07-29T17:02:04;3.65;;;2.17;;
37891;SDS011;45797;47.466;9.486;2022-07-29T17:07:03;3.72;;;1.98;;
37891;SDS011;45797;47.466;9.486;2022-07-29T17:17:07;3.25;;;1.95;;
37891;SDS011;45797;47.466;9.486;2022-07-29T17:22:07;3.30;;;2.03;;
37891;SDS011;45797;47.466;9.486;2022-07-29T17:32:11;3.20;;;1.60;;
37891;SDS011;45797;47.466;9.486;2022-07-29T17:37:11;3.22;;;2.13;;
37891;SDS011;45797;47.466;9.486;2022-07-29T17:42:13;3.67;;;1.73;;
37891;SDS011;45797;47.466;9.486;2022-07-29T17:47:14;2.97;;;1.60;;
37891;SDS011;45797;47.466;9.486;2022-07-29T17:52:15;3.13;;;1.83;;
37891;SDS011;45797;47.466;9.486;2022-07-29T17:57:16;3.88;;;1.83;;
37891;SDS011;45797;47.466;9.486;2022-07-29T18:02:17;4.38;;;2.03;;
37891;SDS011;45797;47.466;9.486;2022-07-29T18:07:17;3.03;;;1.58;;
37891;SDS011;45797;47.466;9.486;2022-07-29T18:12:16;4.03;;;1.92;;
37891;SDS011;45797;47.466;9.486;2022-07-29T18:17:17;4.18;;;1.85;;
37891;SDS011;45797;47.466;9.486;2022-07-29T18:27:27;2.97;;;1.77;;
37891;SDS011;45797;47.466;9.486;2022-07-29T18:32:27;2.75;;;1.50;;
37891;SDS011;45797;47.466;9.486;2022-07-29T18:37:27;4.75;;;1.77;;
37891;SDS011;45797;47.466;9.486;2022-07-29T18:42:27;3.97;;;1.70;;
37891;SDS011;45797;47.466;9.486;2022-07-29T18:47:27;2.92;;;1.88;;
37891;SDS011;45797;47.466;9.486;2022-07-29T18:52:28;3.45;;;1.70;;
37891;SDS011;45797;47.466;9.486;2022-07-29T18:57:29;2.97;;;1.65;;
37891;SDS011;45797;47.466;9.486;2022-07-29T19:07:39;2.30;;;1.30;;
37891;SDS011;45797;47.466;9.486;2022-07-29T19:12:40;5.32;;;1.55;;
37891;SDS011;45797;47.466;9.486;2022-07-29T19:17:40;2.40;;;1.35;;
37891;SDS011;45797;47.466;9.486;2022-07-29T19:27:56;3.05;;;1.33;;
37891;SDS011;45797;47.466;9.486;2022-07-29T19:32:55;3.88;;;1.67;;
37891;SDS011;45797;47.466;9.486;2022-07-29T19:37:58;2.30;;;1.20;;
37891;SDS011;45797;47.466;9.486;2022-07-29T19:48:02;2.00;;;1.10;;
37891;SDS011;45797;47.466;9.486;2022-07-29T19:53:03;2.40;;;1.35;;
37891;SDS011;45797;47.466;9.486;2022-07-29T19:58:09;2.33;;;1.33;;
37891;SDS011;45797;47.466;9.486;2022-07-29T20:03:15;2.35;;;1.08;;
37891;SDS011;45797;47.466;9.486;2022-07-29T20:08:14;2.13;;;1.08;;
37891;SDS011;45797;47.466;9.486;2022-07-29T20:13:18;2.70;;;1.30;;
37891;SDS011;45797;47.466;9.486;2022-07-29T20:18:20;2.17;;;1.00;;
37891;SDS011;45797;47.466;9.486;2022-07-29T20:23:21;2.72;;;1.15;;
37891;SDS011;45797;47.466;9.486;2022-07-29T20:28:22;2.42;;;1.30;;
37891;SDS011;45797;47.466;9.486;2022-07-29T20:33:23;2.42;;;1.20;;
37891;SDS011;45797;47.466;9.486;2022-07-29T20:38:24;2.50;;;1.40;;
37891;SDS011;45797;47.466;9.486;2022-07-29T20:43:33;2.45;;;1.30;;
37891;SDS011;45797;47.466;9.486;2022-07-29T20:59:04;2.85;;;1.30;;
37891;SDS011;45797;47.466;9.486;2022-07-29T21:04:03;2.85;;;1.30;;
37891;SDS011;45797;47.466;9.486;2022-07-29T21:09:04;2.58;;;1.17;;
37891;SDS011;45797;47.466;9.486;2022-07-29T21:14:04;2.63;;;1.55;;
37891;SDS011;45797;47.466;9.486;2022-07-29T21:19:05;3.30;;;1.67;;
37891;SDS011;45797;47.466;9.486;2022-07-29T21:24:16;3.45;;;1.70;;
37891;SDS011;45797;47.466;9.486;2022-07-29T21:29:22;5.55;;;1.92;;
37891;SDS011;45797;47.466;9.486;2022-07-29T21:34:24;3.15;;;1.58;;
37891;SDS011;45797;47.466;9.486;2022-07-29T21:39:28;3.15;;;1.65;;
37891;SDS011;45797;47.466;9.486;2022-07-29T21:49:31;2.53;;;1.52;;
37891;SDS011;45797;47.466;9.486;2022-07-29T21:54:33;2.42;;;1.40;;
37891;SDS011;45797;47.466;9.486;2022-07-29T21:59:35;3.13;;;1.40;;
37891;SDS011;45797;47.466;9.486;2022-07-29T22:04:35;3.58;;;1.52;;
37891;SDS011;45797;47.466;9.486;2022-07-29T22:09:35;4.00;;;1.55;;
37891;SDS011;45797;47.466;9.486;2022-07-29T22:19:38;2.78;;;1.50;;
37891;SDS011;45797;47.466;9.486;2022-07-29T22:24:40;2.70;;;1.60;;
37891;SDS011;45797;47.466;9.486;2022-07-29T22:29:46;2.80;;;1.52;;
37891;SDS011;45797;47.466;9.486;2022-07-29T22:34:47;2.58;;;1.42;;
37891;SDS011;45797;47.466;9.486;2022-07-29T22:39:47;2.83;;;1.58;;
37891;SDS011;45797;47.466;9.486;2022-07-29T22:49:56;2.40;;;1.40;;
37891;SDS011;45797;47.466;9.486;2022-07-29T22:54:56;4.72;;;1.83;;
37891;SDS011;45797;47.466;9.486;2022-07-29T23:10:15;3.38;;;1.48;;
37891;SDS011;45797;47.466;9.486;2022-07-29T23:15:21;5.97;;;1.60;;
37891;SDS011;45797;47.466;9.486;2022-07-29T23:20:21;3.25;;;1.95;;
37891;SDS011;45797;47.466;9.486;2022-07-29T23:25:22;4.05;;;1.80;;
37891;SDS011;45797;47.466;9.486;2022-07-29T23:30:22;4.15;;;1.55;;
37891;SDS011;45797;47.466;9.486;2022-07-29T23:40:27;3.15;;;1.85;;
37891;SDS011;45797;47.466;9.486;2022-07-29T23:45:34;3.00;;;1.70;;
37891;SDS011;45797;47.466;9.486;2022-07-29T23:50:34;3.63;;;1.50;;
37891;SDS011;45797;47.466;9.486;2022-07-29T23:55:34;3.65;;;1.88;;
